Time;durP1;ratioP1;P1;durP2;ratioP2;P2;SDS_P1;SDS_P2;PMS_P1;PMS_P2;Temp;Humidity;BMP_temperature;BMP_pressure;BME280_temperature;BME280_humidity;BME280_pressure;Samples;Min_cycle;Max_cycle;Signal;HPM_P1;HPM_P2
2022/12/02 05:17:08;;;;;;;;;;;;;;;;;;;;;
2022/12/02 05:21:06;;;;;;;49.83;18.63;;;2.30;99.90;;;;;;6061046;23;20366;-93
2022/12/02 05:55:25;;;;;;;;;;;;;;;;;;;;;
2022/12/02 06:33:54;;;;;;;51.10;19.93;;;2.60;99.90;;;;;;6008400;23;20027;-90
2022/12/02 07:02:32;;;;;;;58.07;22.17;;;1.80;99.90;;;;;;6154730;23;20025;-90
2022/12/02 07:34:37;;;;;;;53.47;20.23;;;2.30;99.90;;;;;;6143738;23;20028;-89
2022/12/02 07:37:03;;;;;;;54.20;21.97;;;1.10;99.90;;;;;;6128965;23;20018;-86
2022/12/02 07:39:53;;;;;;;58.50;21.90;;;1.70;99.90;;;;;;6128608;23;20357;-85
2022/12/02 07:42:19;;;;;;;56.77;22.63;;;1.60;99.90;;;;;;6135003;23;20391;-88
2022/12/02 07:44:45;;;;;;;55.87;22.60;;;2.80;99.90;;;;;;6155321;23;20018;-88
2022/12/02 07:47:13;;;;;;;61.90;22.03;;;3.20;99.90;;;;;;6154603;23;20014;-87
2022/12/02 07:49:41;;;;;;;58.37;22.50;;;2.90;99.90;;;;;;6134086;23;20546;-87
2022/12/02 07:52:13;;;;;;;56.70;22.80;;;1.60;99.90;;;;;;6129428;23;20014;-87
2022/12/02 07:54:38;;;;;;;60.83;22.40;;;1.70;99.90;;;;;;6128203;23;20481;-86
2022/12/02 07:57:13;;;;;;;58.47;22.50;;;3.30;99.90;;;;;;6155626;23;20022;-87
2022/12/02 07:59:38;;;;;;;55.97;22.00;;;2.20;99.90;;;;;;6129674;23;20348;-87
2022/12/02 08:02:04;;;;;;;53.13;21.83;;;1.40;99.90;;;;;;6128283;23;20017;-87
2022/12/02 08:04:30;;;;;;;58.53;22.33;;;2.70;99.90;;;;;;6131103;23;20017;-87
2022/12/02 08:07:01;;;;;;;56.47;22.70;;;2.40;99.90;;;;;;6157693;23;20497;-87
2022/12/02 08:09:30;;;;;;;56.33;22.57;;;1.90;99.90;;;;;;6130091;23;20145;-87
2022/12/02 08:11:59;;;;;;;55.20;21.53;;;1.80;99.90;;;;;;6131221;23;20013;-87
2022/12/02 08:14:24;;;;;;;56.53;22.30;;;0.90;99.90;;;;;;6157329;23;20021;-87
2022/12/02 08:16:53;;;;;;;58.20;22.47;;;1.20;99.90;;;;;;6156753;23;20089;-87
2022/12/02 08:19:22;;;;;;;60.70;24.47;;;2.70;99.90;;;;;;6131116;23;20021;-87
2022/12/02 08:21:51;;;;;;;60.50;23.03;;;1.60;99.90;;;;;;6156853;23;20013;-88
2022/12/02 08:25:18;;;;;;;65.13;22.67;;;0.90;99.90;;;;;;6125980;23;20029;-86
2022/12/02 08:28:24;;;;;;;60.50;23.37;;;1.70;99.90;;;;;;6157107;23;20005;-88
2022/12/02 08:30:50;;;;;;;63.47;23.00;;;0.70;99.90;;;;;;6066253;23;20026;-87
2022/12/02 08:33:46;;;;;;;60.30;22.73;;;2.30;99.90;;;;;;6078074;23;20403;-88
2022/12/02 08:40:06;;;;;;;58.97;22.00;;;1.60;99.90;;;;;;6095671;23;20017;-88
2022/12/02 08:42:35;;;;;;;61.27;22.03;;;1.70;99.90;;;;;;6095152;23;20030;-87
2022/12/02 09:09:40;;;;;;;67.47;23.37;;;1.50;99.90;;;;;;6126394;23;20017;-88
2022/12/02 09:13:06;;;;;;;71.07;24.50;;;2.90;99.90;;;;;;6007408;23;20115;-88
2022/12/02 09:15:53;;;;;;;65.67;23.20;;;2.00;99.90;;;;;;6009886;23;20062;-88
2022/12/02 09:18:28;;;;;;;64.47;23.60;;;2.40;99.90;;;;;;6007753;23;20058;-88
2022/12/02 09:20:54;;;;;;;57.87;20.97;;;1.70;99.90;;;;;;6083714;23;20020;-88
2022/12/02 09:23:23;;;;;;;50.17;19.47;;;1.60;99.90;;;;;;6127654;23;20097;-88
2022/12/02 09:25:48;;;;;;;57.27;21.47;;;2.80;99.90;;;;;;6100850;23;20014;-89
2022/12/02 09:28:26;;;;;;;57.20;20.30;;;1.60;99.90;;;;;;6123962;23;20072;-89
2022/12/02 09:30:54;;;;;;;58.93;21.00;;;2.50;99.90;;;;;;6100927;23;20014;-88
2022/12/02 09:40:53;;;;;;;58.20;20.20;;;1.30;99.90;;;;;;6185285;23;20016;-89
2022/12/02 09:43:21;;;;;;;49.33;19.40;;;3.00;99.90;;;;;;6161778;23;20024;-88
2022/12/02 10:00:28;;;;;;;48.60;18.98;;;1.90;99.90;;;;;;6185757;23;20023;-89
2022/12/02 10:02:56;;;;;;;48.70;18.80;;;1.30;99.90;;;;;;6066222;23;20097;-88
2022/12/02 10:13:20;;;;;;;40.93;18.03;;;1.60;99.90;;;;;;6156558;23;20021;-90
2022/12/02 10:15:47;;;;;;;46.67;19.17;;;1.30;99.90;;;;;;6160034;23;20057;-89
2022/12/02 10:21:12;;;;;;;46.00;19.03;;;2.30;99.90;;;;;;6129463;23;20022;-87
2022/12/02 10:24:11;;;;;;;;;;;;;;;;;;;;;
2022/12/02 10:31:58;;;;;;;41.50;17.80;;;2.60;99.90;;;;;;6099949;23;20036;-89
2022/12/02 10:41:32;;;;;;;49.10;19.20;;;2.70;99.90;;;;;;5994808;23;20080;-90
2022/12/02 10:44:59;;;;;;;49.47;18.87;;;2.00;99.90;;;;;;6035770;23;20019;-90
2022/12/02 11:40:18;;;;;;;61.37;25.03;;;1.70;99.90;;;;;;6155342;23;20070;-90
2022/12/02 15:57:24;;;;;;;49.90;23.83;;;1.80;99.90;;;;;;6156026;22;20037;-88
2022/12/02 22:42:25;;;;;;;;;;;;;;;;;;;;;
